createdAt,value
2019-06-15T00:00:31.405Z,100239.73
2019-06-15T00:03:00.389Z,100238.95
2019-06-15T00:05:29.279Z,100251.06
2019-06-15T00:07:58.572Z,100255.20
2019-06-15T00:10:28.067Z,100253.82
2019-06-15T00:12:57.033Z,100248.14
2019-06-15T00:15:26.092Z,100234.73
2019-06-15T00:17:55.378Z,100216.05
2019-06-15T00:20:24.857Z,100208.56
2019-06-15T00:22:53.714Z,100215.16
2019-06-15T00:25:22.618Z,100214.97
2019-06-15T00:27:51.517Z,100208.19
2019-06-15T00:30:20.937Z,100199.22
2019-06-15T00:32:50.173Z,100200.61
2019-06-15T00:35:19.051Z,100200.41
2019-06-15T00:37:48.006Z,100195.16
2019-06-15T00:40:17.059Z,100190.63
2019-06-15T00:42:46.281Z,100182.09
2019-06-15T00:45:15.282Z,100173.80
2019-06-15T00:47:44.751Z,100169.27
2019-06-15T00:50:13.771Z,100167.70
2019-06-15T00:52:43.011Z,100168.22
2019-06-15T00:55:12.621Z,100158.22
2019-06-15T00:57:42.128Z,100120.59
2019-06-15T01:00:11.071Z,100093.36
2019-06-15T01:02:39.991Z,100118.75
2019-06-15T01:05:09.424Z,100144.61
2019-06-15T01:07:38.344Z,100149.37
2019-06-15T01:10:07.919Z,100154.66
2019-06-15T01:12:36.930Z,100156.16
2019-06-15T01:15:07.522Z,100151.11
2019-06-15T01:17:36.718Z,100158.11
2019-06-15T01:20:06.429Z,100148.83
2019-06-15T01:22:35.470Z,100139.72
2019-06-15T01:25:05.943Z,100129.04
2019-06-15T01:27:35.122Z,100110.27
2019-06-15T01:30:04.487Z,100106.50
2019-06-15T01:32:33.630Z,100097.34
2019-06-15T01:35:02.950Z,100077.91
2019-06-15T01:37:32.366Z,100068.28
2019-06-15T01:40:01.553Z,100058.72
2019-06-15T01:42:30.575Z,100044.36
2019-06-15T01:45:00.047Z,100039.31
2019-06-15T01:47:29.021Z,100028.55
2019-06-15T01:49:57.995Z,100021.59
2019-06-15T01:52:27.362Z,100019.22
2019-06-15T01:54:56.229Z,100010.11
2019-06-15T01:57:25.131Z,100006.67
2019-06-15T01:59:54.429Z,99997.54
2019-06-15T02:02:23.370Z,99990.67
2019-06-15T02:04:52.424Z,99989.33
2019-06-15T02:07:21.596Z,99975.67
2019-06-15T02:09:50.960Z,99970.34
2019-06-15T02:12:20.121Z,99973.77
2019-06-15T02:14:49.300Z,99956.06
2019-06-15T02:17:18.641Z,99950.41
2019-06-15T02:19:47.608Z,99943.69
2019-06-15T02:22:16.795Z,99937.38
2019-06-15T02:24:45.688Z,99931.67
2019-06-15T02:27:15.080Z,99927.06
2019-06-15T02:29:44.283Z,99917.36
2019-06-15T02:32:13.251Z,99919.98
2019-06-15T02:34:42.198Z,99927.89
2019-06-15T02:37:11.174Z,99923.52
2019-06-15T02:39:40.435Z,99926.34
2019-06-15T02:42:09.970Z,99922.69
2019-06-15T02:44:39.460Z,99922.84
2019-06-15T02:47:08.675Z,99923.80
2019-06-15T02:49:37.894Z,99919.91
2019-06-15T02:52:06.860Z,99922.20
2019-06-15T02:54:36.056Z,99936.80
2019-06-15T02:57:05.074Z,99946.33
2019-06-15T02:59:34.333Z,99944.19
2019-06-15T03:02:03.266Z,99934.63
2019-06-15T03:04:32.437Z,99936.57
2019-06-15T03:07:02.093Z,99947.00
2019-06-15T03:09:31.053Z,99943.84
2019-06-15T03:11:59.982Z,99941.38
2019-06-15T03:14:28.832Z,99938.63
2019-06-15T03:16:58.068Z,99943.14
2019-06-15T03:19:27.187Z,99944.09
2019-06-15T03:21:56.094Z,99955.80
2019-06-15T03:24:24.947Z,99957.05
2019-06-15T03:26:53.849Z,99969.03
2019-06-15T03:29:22.644Z,99969.94
2019-06-15T03:31:51.573Z,99967.94
2019-06-15T03:34:20.799Z,99956.41
2019-06-15T03:36:49.829Z,99952.50
2019-06-15T03:39:19.026Z,99948.27
2019-06-15T03:41:48.424Z,99941.84
2019-06-15T03:44:17.638Z,99934.02
2019-06-15T03:46:46.537Z,99923.56
2019-06-15T03:49:15.538Z,99918.84
2019-06-15T03:51:44.501Z,99928.11
2019-06-15T03:54:13.859Z,99928.85
2019-06-15T03:56:42.986Z,99928.55
2019-06-15T03:59:11.867Z,99921.83
2019-06-15T04:01:46.747Z,99920.95
2019-06-15T04:04:15.676Z,99914.73
2019-06-15T04:06:45.149Z,99920.42
2019-06-15T04:09:14.349Z,99924.61
2019-06-15T04:11:43.483Z,99918.57
2019-06-15T04:14:13.056Z,99909.56
2019-06-15T04:16:42.045Z,99896.22
2019-06-15T04:19:10.963Z,99901.84
2019-06-15T04:21:39.830Z,99883.05
2019-06-15T04:24:08.875Z,99878.67
2019-06-15T04:26:37.741Z,99883.11
2019-06-15T04:29:06.713Z,99885.97
2019-06-15T04:31:35.911Z,99886.25
2019-06-15T04:34:05.455Z,99885.98
2019-06-15T04:36:34.623Z,99882.94
2019-06-15T04:39:05.653Z,99887.78
2019-06-15T04:41:34.603Z,99898.09
2019-06-15T04:44:03.949Z,99898.98
2019-06-15T04:46:33.252Z,99897.70
2019-06-15T04:49:02.227Z,99900.43
2019-06-15T04:51:31.124Z,99902.56
2019-06-15T04:54:00.407Z,99910.43
2019-06-15T04:56:29.354Z,99924.09
2019-06-15T04:58:58.615Z,99931.27
2019-06-15T05:01:28.220Z,99950.49
2019-06-15T05:03:57.133Z,99955.17
2019-06-15T05:06:26.083Z,99963.50
2019-06-15T05:08:55.173Z,99954.52
2019-06-15T05:11:24.097Z,99946.91
2019-06-15T05:13:52.980Z,99943.70
2019-06-15T05:16:22.196Z,99944.75
2019-06-15T05:18:51.109Z,99941.25
2019-06-15T05:21:20.338Z,99939.66
2019-06-15T05:23:49.160Z,99941.84
2019-06-15T05:26:18.593Z,99936.62
2019-06-15T05:28:47.764Z,99948.50
2019-06-15T05:31:17.027Z,99951.88
2019-06-15T05:33:45.912Z,99944.89
2019-06-15T05:36:14.859Z,99940.48
2019-06-15T05:38:43.674Z,99953.41
2019-06-15T05:41:15.642Z,99956.54
2019-06-15T05:43:43.558Z,99957.94
2019-06-15T05:46:12.553Z,99969.32
2019-06-15T05:48:42.278Z,99971.98
2019-06-15T05:51:11.568Z,99980.91
2019-06-15T05:53:40.427Z,99989.27
2019-06-15T05:56:09.948Z,99996.80
2019-06-15T05:58:38.831Z,99994.36
2019-06-15T06:01:08.259Z,100002.22
2019-06-15T06:03:37.250Z,99989.84
2019-06-15T06:06:06.140Z,99987.86
2019-06-15T06:08:35.434Z,99984.03
2019-06-15T06:11:04.957Z,99987.20
2019-06-15T06:13:34.117Z,99999.48
2019-06-15T06:16:03.431Z,100006.72
2019-06-15T06:18:32.539Z,100001.45
2019-06-15T06:21:01.857Z,99998.43
2019-06-15T06:23:31.146Z,99997.92
2019-06-15T06:26:00.689Z,99999.85
2019-06-15T06:28:29.942Z,100000.08
2019-06-15T06:30:59.244Z,100005.21
2019-06-15T06:33:28.437Z,100019.05
2019-06-15T06:35:57.527Z,100015.98
2019-06-15T06:38:26.545Z,100008.14
2019-06-15T06:40:56.172Z,100009.85
2019-06-15T06:43:26.001Z,100016.70
2019-06-15T06:45:55.266Z,100018.31
2019-06-15T06:48:24.397Z,100026.18
2019-06-15T06:50:53.418Z,100020.86
2019-06-15T06:53:22.366Z,100020.52
2019-06-15T06:55:51.356Z,100015.15
2019-06-15T06:58:20.829Z,100021.88
2019-06-15T07:00:49.778Z,100021.39
2019-06-15T07:03:18.864Z,100026.22
2019-06-15T07:05:47.843Z,100019.91
2019-06-15T07:08:16.734Z,100019.68
2019-06-15T07:10:45.722Z,100022.44
2019-06-15T07:13:14.675Z,100024.45
2019-06-15T07:15:43.944Z,100026.58
2019-06-15T07:18:12.910Z,100030.97
2019-06-15T07:20:41.866Z,100034.89
2019-06-15T07:23:10.750Z,100037.99
2019-06-15T07:25:39.644Z,100039.73
2019-06-15T07:28:08.778Z,100039.67
2019-06-15T07:30:37.758Z,100037.87
2019-06-15T07:33:06.679Z,100031.11
2019-06-15T07:35:35.611Z,100041.39
2019-06-15T07:38:04.920Z,100046.55
2019-06-15T07:40:33.938Z,100050.13
2019-06-15T07:43:03.262Z,100055.25
2019-06-15T07:45:32.512Z,100050.81
2019-06-15T07:48:01.403Z,100065.00
2019-06-15T07:50:30.952Z,100075.14
2019-06-15T07:53:00.300Z,100079.62
2019-06-15T07:55:29.217Z,100078.14
2019-06-15T07:57:58.233Z,100091.26
2019-06-15T08:00:27.234Z,100086.46
2019-06-15T08:02:56.222Z,100086.84
2019-06-15T08:05:25.460Z,100086.08
2019-06-15T08:07:55.201Z,100094.23
2019-06-15T08:10:24.535Z,100095.97
2019-06-15T08:12:53.429Z,100097.44
2019-06-15T08:15:23.017Z,100108.97
2019-06-15T08:17:52.605Z,100103.31
2019-06-15T08:20:26.136Z,100103.31
2019-06-15T08:22:54.951Z,100108.66
2019-06-15T08:25:23.894Z,100106.80
2019-06-15T08:27:52.840Z,100101.77
2019-06-15T08:30:28.168Z,100110.36
2019-06-15T08:32:57.153Z,100116.06
2019-06-15T08:35:26.153Z,100112.58
2019-06-15T08:37:55.155Z,100103.59
2019-06-15T08:40:24.124Z,100107.11
2019-06-15T08:42:53.058Z,100121.79
2019-06-15T08:45:22.066Z,100114.59
2019-06-15T08:47:51.389Z,100111.08
2019-06-15T08:50:20.794Z,100116.70
2019-06-15T08:52:49.968Z,100115.19
2019-06-15T08:55:19.281Z,100124.11
2019-06-15T08:57:48.154Z,100131.76
2019-06-15T09:00:17.778Z,100134.66
2019-06-15T09:02:47.074Z,100144.06
2019-06-15T09:05:16.308Z,100145.33
2019-06-15T09:07:45.210Z,100150.44
2019-06-15T09:10:14.315Z,100151.15
2019-06-15T09:12:43.268Z,100152.88
2019-06-15T09:15:12.395Z,100162.49
2019-06-15T09:17:41.574Z,100164.03
2019-06-15T09:20:10.726Z,100175.78
2019-06-15T09:22:39.929Z,100175.75
2019-06-15T09:25:09.578Z,100177.44
2019-06-15T09:27:39.160Z,100172.02
2019-06-15T09:30:08.560Z,100172.63
2019-06-15T09:32:37.436Z,100169.96
2019-06-15T09:35:06.852Z,100171.80
2019-06-15T09:37:35.904Z,100172.52
2019-06-15T09:40:05.541Z,100178.26
2019-06-15T09:42:34.568Z,100176.92
2019-06-15T09:45:03.544Z,100175.48
2019-06-15T09:47:33.048Z,100176.73
2019-06-15T09:50:02.557Z,100174.80
2019-06-15T09:52:31.486Z,100187.81
2019-06-15T09:55:00.497Z,100182.77
2019-06-15T09:57:29.440Z,100183.31
2019-06-15T09:59:58.353Z,100190.52
2019-06-15T10:02:27.537Z,100197.58
2019-06-15T10:04:56.732Z,100204.62
2019-06-15T10:07:25.675Z,100203.84
2019-06-15T10:09:54.939Z,100214.91
2019-06-15T10:12:23.865Z,100221.95
2019-06-15T10:14:52.774Z,100224.74
2019-06-15T10:17:22.149Z,100224.89
2019-06-15T10:19:51.235Z,100230.63
2019-06-15T10:22:20.148Z,100232.80
2019-06-15T10:24:49.072Z,100240.42
2019-06-15T10:27:18.079Z,100238.92
2019-06-15T10:29:46.959Z,100241.23
2019-06-15T10:32:15.940Z,100239.53
2019-06-15T10:34:44.842Z,100243.05
2019-06-15T10:37:13.726Z,100246.02
2019-06-15T10:39:42.665Z,100249.67
2019-06-15T10:42:11.488Z,100252.53
2019-06-15T10:44:40.735Z,100258.44
2019-06-15T10:47:09.937Z,100259.36
2019-06-15T10:49:38.822Z,100273.59
2019-06-15T10:52:07.842Z,100271.72
2019-06-15T10:54:36.908Z,100268.03
2019-06-15T10:57:05.832Z,100278.52
2019-06-15T10:59:35.070Z,100273.42
2019-06-15T11:02:04.382Z,100281.08
2019-06-15T11:04:33.283Z,100284.30
2019-06-15T11:07:02.178Z,100282.42
2019-06-15T11:09:31.118Z,100282.14
2019-06-15T11:12:00.045Z,100287.55
2019-06-15T11:14:29.544Z,100288.57
2019-06-15T11:17:00.765Z,100297.52
2019-06-15T11:19:29.641Z,100310.02
2019-06-15T11:21:58.610Z,100311.40
2019-06-15T11:24:27.585Z,100309.15
2019-06-15T11:26:56.477Z,100307.86
2019-06-15T11:29:25.687Z,100316.50
2019-06-15T11:31:54.645Z,100325.51
2019-06-15T11:34:23.856Z,100333.75
2019-06-15T11:36:52.744Z,100333.31
2019-06-15T11:39:21.652Z,100341.63
2019-06-15T11:41:50.640Z,100348.98
2019-06-15T11:44:19.568Z,100356.44
2019-06-15T11:46:48.419Z,100349.98
2019-06-15T11:49:17.699Z,100360.94
2019-06-15T11:51:46.972Z,100360.01
2019-06-15T11:54:16.104Z,100353.81
2019-06-15T11:56:45.078Z,100361.72
2019-06-15T11:59:14.030Z,100365.77
2019-06-15T12:01:43.295Z,100372.13
2019-06-15T12:04:12.196Z,100373.97
2019-06-15T12:06:41.203Z,100381.86
2019-06-15T12:09:10.434Z,100384.02
2019-06-15T12:11:39.962Z,100377.22
2019-06-15T12:14:08.906Z,100375.16
2019-06-15T12:16:37.767Z,100371.95
2019-06-15T12:19:06.707Z,100379.22
2019-06-15T12:21:35.956Z,100387.28
2019-06-15T12:24:05.110Z,100390.47
2019-06-15T12:26:34.059Z,100392.16
2019-06-15T12:29:03.019Z,100389.50
2019-06-15T12:31:32.209Z,100404.25
2019-06-15T12:34:01.512Z,100414.52
2019-06-15T12:36:30.814Z,100415.71
2019-06-15T12:38:59.760Z,100419.81
2019-06-15T12:41:28.670Z,100415.36
2019-06-15T12:43:57.614Z,100421.12
2019-06-15T12:46:26.905Z,100425.86
2019-06-15T12:48:55.843Z,100419.27
2019-06-15T12:51:24.840Z,100416.98
2019-06-15T12:53:53.976Z,100417.12
2019-06-15T12:56:23.248Z,100423.84
2019-06-15T12:58:52.604Z,100422.77
2019-06-15T13:01:21.581Z,100422.27
2019-06-15T13:03:50.551Z,100430.86
2019-06-15T13:06:19.774Z,100431.23
2019-06-15T13:08:48.690Z,100426.30
2019-06-15T13:11:17.596Z,100428.27
2019-06-15T13:13:46.564Z,100432.56
2019-06-15T13:16:15.505Z,100432.44
2019-06-15T13:18:44.838Z,100435.89
2019-06-15T13:21:14.056Z,100432.63
2019-06-15T13:23:42.960Z,100434.45
2019-06-15T13:26:11.868Z,100425.52
2019-06-15T13:28:41.180Z,100427.77
2019-06-15T13:31:18.204Z,100434.98
2019-06-15T13:33:40.738Z,100437.28
2019-06-15T13:36:12.447Z,100443.44
2019-06-15T13:38:43.560Z,100432.67
2019-06-15T13:41:12.846Z,100445.55
2019-06-15T13:43:41.654Z,100442.56
2019-06-15T13:46:10.530Z,100444.70
2019-06-15T13:48:39.479Z,100443.75
2019-06-15T13:51:08.833Z,100449.23
2019-06-15T13:53:37.746Z,100451.78
2019-06-15T13:56:06.631Z,100454.19
2019-06-15T13:58:35.545Z,100464.00
2019-06-15T14:01:04.523Z,100465.44
2019-06-15T14:03:33.603Z,100474.03
2019-06-15T14:06:02.503Z,100473.34
2019-06-15T14:08:31.663Z,100478.36
2019-06-15T14:11:01.025Z,100471.52
2019-06-15T14:13:29.898Z,100477.33
2019-06-15T14:15:59.118Z,100471.39
2019-06-15T14:18:28.000Z,100466.03
2019-06-15T14:20:56.986Z,100466.95
2019-06-15T14:23:25.907Z,100460.52
2019-06-15T14:25:54.795Z,100457.69
2019-06-15T14:28:23.779Z,100467.36
2019-06-15T14:30:52.909Z,100469.72
2019-06-15T14:33:21.902Z,100466.50
2019-06-15T14:35:51.250Z,100461.51
2019-06-15T14:38:20.506Z,100468.66
2019-06-15T14:40:49.745Z,100463.66
2019-06-15T14:43:18.912Z,100460.99
2019-06-15T14:45:58.921Z,100455.82
2019-06-15T14:48:19.229Z,100459.85
2019-06-15T14:50:48.141Z,100462.55
2019-06-15T14:53:17.104Z,100459.97
2019-06-15T14:55:46.525Z,100460.71
2019-06-15T14:58:17.103Z,100460.23
2019-06-15T15:00:46.781Z,100462.69
2019-06-15T15:03:17.163Z,100464.03
2019-06-15T15:05:46.145Z,100464.42
2019-06-15T15:08:15.068Z,100460.53
2019-06-15T15:10:44.189Z,100467.28
2019-06-15T15:13:13.071Z,100460.44
2019-06-15T15:15:42.311Z,100461.78
2019-06-15T15:18:12.060Z,100461.41
2019-06-15T15:20:40.982Z,100468.95
2019-06-15T15:23:10.168Z,100469.05
2019-06-15T15:25:39.076Z,100467.86
2019-06-15T15:28:08.013Z,100465.86
2019-06-15T15:30:40.952Z,100464.89
2019-06-15T15:33:09.933Z,100465.48
2019-06-15T15:35:39.153Z,100463.00
2019-06-15T15:38:08.102Z,100461.91
2019-06-15T15:40:37.038Z,100466.69
2019-06-15T15:43:06.996Z,100468.37
2019-06-15T15:45:37.022Z,100471.87
2019-06-15T15:48:06.944Z,100476.88
2019-06-15T15:50:37.069Z,100479.41
2019-06-15T15:53:06.579Z,100471.34
2019-06-15T15:55:35.535Z,100475.86
2019-06-15T15:58:06.796Z,100477.22
2019-06-15T16:00:35.388Z,100481.06
2019-06-15T16:03:07.117Z,100481.53
2019-06-15T16:05:37.041Z,100480.31
2019-06-15T16:08:06.767Z,100475.48
2019-06-15T16:10:37.447Z,100482.64
2019-06-15T16:13:06.688Z,100486.89
2019-06-15T16:15:37.199Z,100481.98
2019-06-15T16:18:06.911Z,100473.49
2019-06-15T16:20:37.038Z,100475.67
2019-06-15T16:23:07.441Z,100478.48
2019-06-15T16:25:37.337Z,100482.97
2019-06-15T16:28:07.048Z,100477.53
2019-06-15T16:31:00.471Z,100486.05
2019-06-15T16:33:07.979Z,100476.26
2019-06-15T16:35:37.134Z,100478.27
2019-06-15T16:38:06.895Z,100477.08
2019-06-15T16:40:38.621Z,100473.38
2019-06-15T16:43:07.652Z,100470.70
2019-06-15T16:45:36.736Z,100475.95
2019-06-15T16:48:06.499Z,100471.66
2019-06-15T16:50:36.609Z,100478.69
2019-06-15T16:53:06.999Z,100474.09
2019-06-15T16:55:37.052Z,100473.11
2019-06-15T16:58:07.376Z,100478.18
2019-06-15T17:00:36.766Z,100471.46
2019-06-15T17:03:19.939Z,100486.23
2019-06-15T17:05:37.286Z,100488.61
2019-06-15T17:08:07.162Z,100485.09
2019-06-15T17:10:39.003Z,100480.11
2019-06-15T17:13:07.977Z,100480.98
2019-06-15T17:15:37.248Z,100481.95
2019-06-15T17:18:06.747Z,100483.36
2019-06-15T17:20:42.982Z,100483.76
2019-06-15T17:23:11.835Z,100474.02
2019-06-15T17:25:40.699Z,100474.08
2019-06-15T17:28:09.632Z,100469.81
2019-06-15T17:30:38.570Z,100479.81
2019-06-15T17:33:08.422Z,100479.52
2019-06-15T17:35:37.794Z,100475.89
2019-06-15T17:38:06.808Z,100488.43
2019-06-15T17:40:36.449Z,100488.36
2019-06-15T17:43:06.621Z,100486.64
2019-06-15T17:45:37.576Z,100495.57
2019-06-15T17:48:06.908Z,100486.86
2019-06-15T17:50:40.219Z,100490.88
2019-06-15T17:53:09.172Z,100489.19
2019-06-15T17:55:39.149Z,100496.52
2019-06-15T17:58:08.132Z,100485.44
2019-06-15T18:00:42.953Z,100485.02
2019-06-15T18:03:12.373Z,100481.41
2019-06-15T18:05:41.691Z,100484.86
2019-06-15T18:08:11.327Z,100481.88
2019-06-15T18:10:40.598Z,100475.47
2019-06-15T18:13:09.537Z,100474.12
2019-06-15T18:15:38.707Z,100477.66
2019-06-15T18:18:07.662Z,100476.69
2019-06-15T18:20:37.066Z,100471.94
2019-06-15T18:23:06.366Z,100470.23
2019-06-15T18:25:37.196Z,100469.34
2019-06-15T18:28:06.437Z,100476.20
2019-06-15T18:30:37.171Z,100476.12
2019-06-15T18:33:07.115Z,100465.70
2019-06-15T18:35:36.472Z,100468.24
2019-06-15T18:38:07.216Z,100472.26
2019-06-15T18:40:37.197Z,100475.83
2019-06-15T18:43:07.313Z,100466.59
2019-06-15T18:45:36.473Z,100469.62
2019-06-15T18:48:06.238Z,100468.16
2019-06-15T18:50:37.727Z,100472.98
2019-06-15T18:53:07.363Z,100469.78
2019-06-15T18:55:36.581Z,100470.31
2019-06-15T18:58:05.882Z,100468.37
2019-06-15T19:00:37.123Z,100469.42
2019-06-15T19:03:06.934Z,100472.78
2019-06-15T19:05:37.468Z,100471.58
2019-06-15T19:08:06.957Z,100474.20
2019-06-15T19:10:36.922Z,100469.50
2019-06-15T19:13:07.538Z,100473.97
2019-06-15T19:15:37.423Z,100473.67
2019-06-15T19:18:07.616Z,100467.50
2019-06-15T19:20:37.441Z,100468.91
2019-06-15T19:23:07.297Z,100479.47
2019-06-15T19:25:36.763Z,100486.20
2019-06-15T19:28:05.908Z,100483.06
2019-06-15T19:30:37.281Z,100483.94
2019-06-15T19:33:06.124Z,100486.47
2019-06-15T19:35:36.351Z,100486.53
2019-06-15T19:38:06.559Z,100489.03
2019-06-15T19:40:37.781Z,100490.95
2019-06-15T19:43:06.878Z,100494.48
2019-06-15T19:45:37.059Z,100502.88
2019-06-15T19:48:06.823Z,100508.05
2019-06-15T19:50:36.525Z,100509.66
2019-06-15T19:53:07.056Z,100510.86
2019-06-15T19:55:36.422Z,100512.08
2019-06-15T19:58:07.174Z,100517.95
2019-06-15T20:00:36.629Z,100528.64
2019-06-15T20:03:06.990Z,100531.73
2019-06-15T20:05:37.280Z,100525.41
2019-06-15T20:08:07.234Z,100531.73
2019-06-15T20:10:37.282Z,100532.98
2019-06-15T20:13:07.168Z,100525.52
2019-06-15T20:15:37.664Z,100536.45
2019-06-15T20:18:07.249Z,100531.66
2019-06-15T20:20:37.083Z,100538.53
2019-06-15T20:23:07.280Z,100539.69
2019-06-15T20:25:37.016Z,100530.14
2019-06-15T20:28:07.115Z,100530.16
2019-06-15T20:30:37.142Z,100525.23
2019-06-15T20:33:07.995Z,100517.64
2019-06-15T20:35:36.892Z,100512.72
2019-06-15T20:38:06.062Z,100509.44
2019-06-15T20:40:36.565Z,100517.75
2019-06-15T20:43:07.606Z,100527.31
2019-06-15T20:45:37.133Z,100520.94
2019-06-15T20:48:06.852Z,100531.02
2019-06-15T20:50:36.476Z,100522.20
2019-06-15T20:53:06.116Z,100522.39
2019-06-15T20:55:37.278Z,100518.38
2019-06-15T20:58:06.646Z,100519.83
2019-06-15T21:00:36.774Z,100516.23
2019-06-15T21:03:06.873Z,100513.97
2019-06-15T21:05:41.038Z,100521.03
2019-06-15T21:08:07.142Z,100520.62
2019-06-15T21:10:37.266Z,100520.52
2019-06-15T21:13:06.439Z,100516.20
2019-06-15T21:15:38.610Z,100522.45
2019-06-15T21:18:07.633Z,100523.55
2019-06-15T21:20:36.603Z,100528.65
2019-06-15T21:23:06.707Z,100527.71
2019-06-15T21:25:35.837Z,100480.87
2019-06-15T21:28:06.693Z,100481.45
2019-06-15T21:30:36.875Z,100476.44
2019-06-15T21:33:07.074Z,100474.17
2019-06-15T21:35:48.189Z,100466.17
2019-06-15T21:38:07.106Z,100477.40
2019-06-15T21:40:36.959Z,100477.19
2019-06-15T21:43:07.028Z,100484.13
2019-06-15T21:45:36.765Z,100477.05
2019-06-15T21:48:06.797Z,100468.64
2019-06-15T21:50:36.321Z,100469.25
2019-06-15T21:53:06.975Z,100472.81
2019-06-15T21:55:36.450Z,100470.34
2019-06-15T21:58:07.579Z,100459.91
2019-06-15T22:00:47.824Z,100449.78
2019-06-15T22:03:17.033Z,100450.29
2019-06-15T22:05:50.068Z,100450.08
2019-06-15T22:08:17.164Z,100446.91
2019-06-15T22:10:46.362Z,100440.34
2019-06-15T22:13:16.009Z,100442.58
2019-06-15T22:15:46.642Z,100431.19
2019-06-15T22:18:16.467Z,100433.13
2019-06-15T22:20:47.125Z,100434.39
2019-06-15T22:23:16.686Z,100434.05
2019-06-15T22:25:46.363Z,100439.64
2019-06-15T22:28:16.459Z,100438.59
2019-06-15T22:30:46.342Z,100438.05
2019-06-15T22:33:16.531Z,100440.33
2019-06-15T22:35:47.514Z,100444.39
2019-06-15T22:38:16.456Z,100449.62
2019-06-15T22:40:47.048Z,100444.35
2019-06-15T22:43:16.768Z,100447.22
2019-06-15T22:45:49.777Z,100432.05
2019-06-15T22:48:16.686Z,100437.48
2019-06-15T22:50:46.816Z,100435.21
2019-06-15T22:53:16.563Z,100438.17
2019-06-15T22:55:46.407Z,100433.58
2019-06-15T22:58:17.923Z,100421.80
2019-06-15T23:00:47.007Z,100418.62
2019-06-15T23:03:16.851Z,100421.11
2019-06-15T23:05:46.409Z,100414.34
2019-06-15T23:08:16.278Z,100412.32
2019-06-15T23:10:46.824Z,100417.22
2019-06-15T23:13:16.222Z,100417.05
2019-06-15T23:15:47.073Z,100417.17
2019-06-15T23:18:17.156Z,100415.94
2019-06-15T23:20:46.427Z,100416.87
2019-06-15T23:23:16.286Z,100412.71
2019-06-15T23:25:47.241Z,100413.22
2019-06-15T23:28:16.570Z,100420.05
2019-06-15T23:30:47.304Z,100420.25
2019-06-15T23:33:17.215Z,100419.11
2019-06-15T23:35:52.131Z,100425.88
2019-06-15T23:38:21.487Z,100422.32
2019-06-15T23:40:50.765Z,100418.16
2019-06-15T23:43:20.211Z,100410.88
2019-06-15T23:45:49.440Z,100408.30
2019-06-15T23:48:18.644Z,100402.86
2019-06-15T23:50:47.643Z,100405.21
2019-06-15T23:53:17.063Z,100411.91
2019-06-15T23:55:47.233Z,100405.77
2019-06-15T23:58:17.640Z,100407.62
